PGRO/ROP METAR and TAF weather

Enter ICAO airport designator
Station Type Date Time Source
PGRO METAR 2022/01/23 07:50 UTC NOAA

PGRO 230750Z 10015KT 7SM SCT014 BKN030 BKN080 27/22 A2985 RMK LAST


Station Type Date Time Source
PGRO Decoded METAR 2022/01/23 07:50 UTC NOAA

Rota Island, N. Mariana Is, Rota International Airport, GU, United States (PGRO) 14-11N 145-15E
Jan 23, 2022 - 02:50 AM EST / 2022.01.23 0750 UTC
Wind: from the E (100 degrees) at 17 MPH (15 KT):0
Visibility: 7 mile(s):0
Sky conditions: mostly cloudy
Temperature: 80 F (27 C)
Dew Point: 71 F (22 C)
Relative Humidity: 74%
Pressure (altimeter): 29.85 in. Hg (1010 hPa)
ob: PGRO 230750Z 10015KT 7SM SCT014 BKN030 BKN080 27/22 A2985 RMK LAST
cycle: 8

Station Type Date Time Source
PGRO TAF 2022/01/23 06:22 UTC NOAA

TAF PGRO 230520Z 2306/2406 09015KT P6SM VCSH SCT015 BKN035 BKN080
TEMPO 2307/2311 5SM -SHRA BKN015

Example: see airport list